sensor_id;sensor_type;location;lat;lon;timestamp;pressure;altitude;pressure_sealevel;temperature;humidity
72423;BME280;71399;54.146;38.734;2024-01-30T00:00:13;99990.84;;;-3.28;100.00
72423;BME280;71399;54.146;38.734;2024-01-30T00:02:40;99956.91;;;-3.33;100.00
72423;BME280;71399;54.146;38.734;2024-01-30T00:05:07;99959.91;;;-3.28;100.00
72423;BME280;71399;54.146;38.734;2024-01-30T00:07:33;99957.72;;;-3.32;100.00
72423;BME280;71399;54.146;38.734;2024-01-30T00:09:59;99931.81;;;-3.31;100.00
72423;BME280;71399;54.146;38.734;2024-01-30T00:12:25;99936.41;;;-3.35;100.00
72423;BME280;71399;54.146;38.734;2024-01-30T00:14:52;99934.50;;;-3.32;100.00
72423;BME280;71399;54.146;38.734;2024-01-30T00:17:18;99939.97;;;-3.26;100.00
72423;BME280;71399;54.146;38.734;2024-01-30T00:19:46;99947.56;;;-3.24;100.00
72423;BME280;71399;54.146;38.734;2024-01-30T00:22:13;99972.84;;;-3.18;100.00
72423;BME280;71399;54.146;38.734;2024-01-30T00:24:39;99980.72;;;-3.20;100.00
72423;BME280;71399;54.146;38.734;2024-01-30T00:27:05;99983.03;;;-3.17;100.00
72423;BME280;71399;54.146;38.734;2024-01-30T00:29:32;99988.06;;;-3.15;100.00
72423;BME280;71399;54.146;38.734;2024-01-30T00:31:59;99974.19;;;-3.24;100.00
72423;BME280;71399;54.146;38.734;2024-01-30T00:34:26;99986.13;;;-3.23;100.00
72423;BME280;71399;54.146;38.734;2024-01-30T00:36:52;99976.25;;;-3.18;100.00
72423;BME280;71399;54.146;38.734;2024-01-30T00:39:18;99962.09;;;-3.23;100.00
72423;BME280;71399;54.146;38.734;2024-01-30T00:41:45;99965.81;;;-3.16;100.00
72423;BME280;71399;54.146;38.734;2024-01-30T00:44:11;99956.31;;;-3.15;100.00
72423;BME280;71399;54.146;38.734;2024-01-30T00:46:38;99968.13;;;-3.13;100.00
72423;BME280;71399;54.146;38.734;2024-01-30T00:49:04;99981.56;;;-3.09;100.00
72423;BME280;71399;54.146;38.734;2024-01-30T00:51:30;99977.38;;;-3.10;100.00
72423;BME280;71399;54.146;38.734;2024-01-30T00:53:57;99999.19;;;-3.14;100.00
72423;BME280;71399;54.146;38.734;2024-01-30T00:56:23;99971.78;;;-3.15;100.00
72423;BME280;71399;54.146;38.734;2024-01-30T00:58:50;99993.41;;;-3.07;100.00
72423;BME280;71399;54.146;38.734;2024-01-30T01:01:16;99987.16;;;-3.04;100.00
72423;BME280;71399;54.146;38.734;2024-01-30T01:03:42;99986.34;;;-3.05;100.00
72423;BME280;71399;54.146;38.734;2024-01-30T01:06:09;99973.72;;;-3.08;100.00
72423;BME280;71399;54.146;38.734;2024-01-30T01:08:38;99973.16;;;-3.11;100.00
72423;BME280;71399;54.146;38.734;2024-01-30T01:11:04;99967.25;;;-3.02;100.00
72423;BME280;71399;54.146;38.734;2024-01-30T01:13:30;99959.31;;;-3.10;100.00
72423;BME280;71399;54.146;38.734;2024-01-30T01:15:57;99961.00;;;-3.00;100.00
72423;BME280;71399;54.146;38.734;2024-01-30T01:18:23;99951.06;;;-3.04;100.00
72423;BME280;71399;54.146;38.734;2024-01-30T01:20:49;99958.53;;;-3.01;100.00
72423;BME280;71399;54.146;38.734;2024-01-30T01:23:15;99942.81;;;-2.98;100.00
72423;BME280;71399;54.146;38.734;2024-01-30T01:25:42;99927.84;;;-3.04;100.00
72423;BME280;71399;54.146;38.734;2024-01-30T01:28:08;99941.63;;;-2.94;100.00
72423;BME280;71399;54.146;38.734;2024-01-30T01:30:34;99952.50;;;-2.90;100.00
72423;BME280;71399;54.146;38.734;2024-01-30T01:33:01;99947.16;;;-2.99;100.00
72423;BME280;71399;54.146;38.734;2024-01-30T01:35:28;99947.59;;;-2.93;100.00
72423;BME280;71399;54.146;38.734;2024-01-30T01:37:54;99945.81;;;-2.93;100.00
72423;BME280;71399;54.146;38.734;2024-01-30T01:40:23;99938.88;;;-2.92;100.00
72423;BME280;71399;54.146;38.734;2024-01-30T01:42:53;99933.31;;;-2.98;100.00
72423;BME280;71399;54.146;38.734;2024-01-30T01:45:21;99937.66;;;-2.98;100.00
72423;BME280;71399;54.146;38.734;2024-01-30T01:47:51;99949.91;;;-2.90;100.00
72423;BME280;71399;54.146;38.734;2024-01-30T01:50:18;99948.56;;;-2.85;100.00
72423;BME280;71399;54.146;38.734;2024-01-30T01:52:50;99944.22;;;-2.84;100.00
72423;BME280;71399;54.146;38.734;2024-01-30T01:55:18;99941.91;;;-2.87;100.00
72423;BME280;71399;54.146;38.734;2024-01-30T01:57:48;99940.13;;;-2.87;100.00
72423;BME280;71399;54.146;38.734;2024-01-30T02:00:14;99937.00;;;-2.90;100.00
72423;BME280;71399;54.146;38.734;2024-01-30T02:02:43;99922.31;;;-3.00;100.00
72423;BME280;71399;54.146;38.734;2024-01-30T02:05:09;99938.75;;;-2.91;100.00
72423;BME280;71399;54.146;38.734;2024-01-30T02:07:36;99931.72;;;-2.89;100.00
72423;BME280;71399;54.146;38.734;2024-01-30T02:10:02;99934.56;;;-2.92;100.00
72423;BME280;71399;54.146;38.734;2024-01-30T02:12:30;99919.72;;;-3.00;100.00
72423;BME280;71399;54.146;38.734;2024-01-30T02:14:56;99926.41;;;-2.97;100.00
72423;BME280;71399;54.146;38.734;2024-01-30T02:17:23;99931.66;;;-3.08;100.00
72423;BME280;71399;54.146;38.734;2024-01-30T02:19:51;99919.84;;;-3.01;100.00
72423;BME280;71399;54.146;38.734;2024-01-30T02:22:18;99911.00;;;-3.08;100.00
72423;BME280;71399;54.146;38.734;2024-01-30T02:24:46;99935.44;;;-3.03;100.00
72423;BME280;71399;54.146;38.734;2024-01-30T02:27:12;99933.00;;;-3.04;100.00
72423;BME280;71399;54.146;38.734;2024-01-30T02:29:38;99931.81;;;-3.00;100.00
72423;BME280;71399;54.146;38.734;2024-01-30T02:32:05;99923.66;;;-3.05;100.00
72423;BME280;71399;54.146;38.734;2024-01-30T02:34:32;99929.03;;;-3.18;100.00
72423;BME280;71399;54.146;38.734;2024-01-30T02:36:58;99918.47;;;-3.15;100.00
72423;BME280;71399;54.146;38.734;2024-01-30T02:39:24;99895.75;;;-3.21;100.00
72423;BME280;71399;54.146;38.734;2024-01-30T02:41:51;99909.91;;;-3.15;100.00
72423;BME280;71399;54.146;38.734;2024-01-30T02:44:17;99901.88;;;-3.12;100.00
72423;BME280;71399;54.146;38.734;2024-01-30T02:46:43;99908.56;;;-3.10;100.00
72423;BME280;71399;54.146;38.734;2024-01-30T02:49:10;99910.22;;;-3.09;100.00
72423;BME280;71399;54.146;38.734;2024-01-30T02:51:37;99912.06;;;-3.11;100.00
72423;BME280;71399;54.146;38.734;2024-01-30T02:54:03;99906.13;;;-3.11;100.00
72423;BME280;71399;54.146;38.734;2024-01-30T02:56:30;99906.78;;;-3.09;100.00
72423;BME280;71399;54.146;38.734;2024-01-30T02:58:56;99900.97;;;-3.11;100.00
72423;BME280;71399;54.146;38.734;2024-01-30T03:01:22;99904.09;;;-3.08;100.00
72423;BME280;71399;54.146;38.734;2024-01-30T03:03:50;99909.78;;;-3.04;100.00
72423;BME280;71399;54.146;38.734;2024-01-30T03:06:16;99907.78;;;-3.01;100.00
72423;BME280;71399;54.146;38.734;2024-01-30T03:08:43;99913.75;;;-3.00;100.00
72423;BME280;71399;54.146;38.734;2024-01-30T03:11:09;99909.28;;;-2.98;100.00
72423;BME280;71399;54.146;38.734;2024-01-30T03:13:36;99904.81;;;-2.96;100.00
72423;BME280;71399;54.146;38.734;2024-01-30T03:16:02;99893.94;;;-3.00;100.00
72423;BME280;71399;54.146;38.734;2024-01-30T03:18:28;99898.31;;;-2.90;100.00
72423;BME280;71399;54.146;38.734;2024-01-30T03:20:55;99903.59;;;-2.92;100.00
72423;BME280;71399;54.146;38.734;2024-01-30T03:23:21;99903.88;;;-2.95;100.00
72423;BME280;71399;54.146;38.734;2024-01-30T03:25:47;99905.09;;;-2.89;100.00
72423;BME280;71399;54.146;38.734;2024-01-30T03:28:13;99892.63;;;-2.94;100.00
72423;BME280;71399;54.146;38.734;2024-01-30T03:30:40;99893.72;;;-2.87;100.00
72423;BME280;71399;54.146;38.734;2024-01-30T03:33:06;99890.31;;;-2.87;100.00
72423;BME280;71399;54.146;38.734;2024-01-30T03:35:32;99882.41;;;-2.86;100.00
72423;BME280;71399;54.146;38.734;2024-01-30T03:37:59;99876.47;;;-2.86;100.00
72423;BME280;71399;54.146;38.734;2024-01-30T03:40:25;99865.19;;;-2.85;100.00
72423;BME280;71399;54.146;38.734;2024-01-30T03:42:51;99848.22;;;-2.88;100.00
72423;BME280;71399;54.146;38.734;2024-01-30T03:45:17;99857.19;;;-2.82;100.00
72423;BME280;71399;54.146;38.734;2024-01-30T03:47:45;99850.00;;;-2.78;100.00
72423;BME280;71399;54.146;38.734;2024-01-30T03:50:11;99859.22;;;-2.76;100.00
72423;BME280;71399;54.146;38.734;2024-01-30T03:52:38;99862.91;;;-2.78;100.00
72423;BME280;71399;54.146;38.734;2024-01-30T03:55:05;99861.94;;;-2.77;100.00
72423;BME280;71399;54.146;38.734;2024-01-30T03:57:31;99855.03;;;-2.77;100.00
72423;BME280;71399;54.146;38.734;2024-01-30T03:59:58;99855.44;;;-2.72;100.00
72423;BME280;71399;54.146;38.734;2024-01-30T04:02:24;99859.34;;;-2.77;100.00
72423;BME280;71399;54.146;38.734;2024-01-30T04:04:50;99857.88;;;-2.80;100.00
72423;BME280;71399;54.146;38.734;2024-01-30T04:07:17;99855.16;;;-2.78;100.00
72423;BME280;71399;54.146;38.734;2024-01-30T04:09:43;99852.97;;;-2.83;100.00
72423;BME280;71399;54.146;38.734;2024-01-30T04:12:10;99846.31;;;-2.86;100.00
72423;BME280;71399;54.146;38.734;2024-01-30T04:14:39;99839.94;;;-2.82;100.00
72423;BME280;71399;54.146;38.734;2024-01-30T04:17:06;99832.34;;;-2.83;100.00
72423;BME280;71399;54.146;38.734;2024-01-30T04:19:32;99847.00;;;-2.84;100.00
72423;BME280;71399;54.146;38.734;2024-01-30T04:21:58;99838.31;;;-2.83;100.00
72423;BME280;71399;54.146;38.734;2024-01-30T04:24:25;99839.16;;;-2.82;100.00
72423;BME280;71399;54.146;38.734;2024-01-30T04:26:51;99833.69;;;-2.79;100.00
72423;BME280;71399;54.146;38.734;2024-01-30T04:29:17;99838.84;;;-2.79;100.00
72423;BME280;71399;54.146;38.734;2024-01-30T04:31:43;99839.81;;;-2.80;100.00
72423;BME280;71399;54.146;38.734;2024-01-30T04:34:10;99837.91;;;-2.78;100.00
72423;BME280;71399;54.146;38.734;2024-01-30T04:36:36;99834.91;;;-2.83;100.00
72423;BME280;71399;54.146;38.734;2024-01-30T04:39:02;99834.41;;;-2.77;100.00
72423;BME280;71399;54.146;38.734;2024-01-30T04:41:29;99836.97;;;-2.77;100.00
72423;BME280;71399;54.146;38.734;2024-01-30T04:43:57;99832.91;;;-2.70;100.00
72423;BME280;71399;54.146;38.734;2024-01-30T04:46:23;99831.13;;;-2.69;100.00
72423;BME280;71399;54.146;38.734;2024-01-30T04:48:50;99833.31;;;-2.65;100.00
72423;BME280;71399;54.146;38.734;2024-01-30T04:51:16;99831.00;;;-2.68;100.00
72423;BME280;71399;54.146;38.734;2024-01-30T04:53:42;99842.69;;;-2.54;100.00
72423;BME280;71399;54.146;38.734;2024-01-30T04:56:08;99853.69;;;-2.52;100.00
72423;BME280;71399;54.146;38.734;2024-01-30T04:58:35;99855.44;;;-2.52;100.00
72423;BME280;71399;54.146;38.734;2024-01-30T05:01:02;99849.47;;;-2.53;100.00
72423;BME280;71399;54.146;38.734;2024-01-30T05:03:28;99839.16;;;-2.53;100.00
72423;BME280;71399;54.146;38.734;2024-01-30T05:05:54;99843.38;;;-2.52;100.00
72423;BME280;71399;54.146;38.734;2024-01-30T05:08:21;99850.28;;;-2.52;100.00
72423;BME280;71399;54.146;38.734;2024-01-30T05:10:47;99861.72;;;-2.55;100.00
72423;BME280;71399;54.146;38.734;2024-01-30T05:13:13;99865.75;;;-2.52;100.00
72423;BME280;71399;54.146;38.734;2024-01-30T05:15:40;99864.41;;;-2.56;100.00
72423;BME280;71399;54.146;38.734;2024-01-30T05:18:06;99870.38;;;-2.56;100.00
72423;BME280;71399;54.146;38.734;2024-01-30T05:20:32;99883.72;;;-2.61;100.00
72423;BME280;71399;54.146;38.734;2024-01-30T05:22:59;99868.22;;;-2.61;100.00
72423;BME280;71399;54.146;38.734;2024-01-30T05:25:25;99869.72;;;-2.58;100.00
72423;BME280;71399;54.146;38.734;2024-01-30T05:27:51;99856.81;;;-2.58;100.00
72423;BME280;71399;54.146;38.734;2024-01-30T05:30:17;99855.59;;;-2.54;100.00
72423;BME280;71399;54.146;38.734;2024-01-30T05:32:44;99848.81;;;-2.55;100.00
72423;BME280;71399;54.146;38.734;2024-01-30T05:35:10;99852.47;;;-2.48;100.00
72423;BME280;71399;54.146;38.734;2024-01-30T05:37:36;99856.81;;;-2.48;100.00
72423;BME280;71399;54.146;38.734;2024-01-30T05:40:02;99865.09;;;-2.45;100.00
72423;BME280;71399;54.146;38.734;2024-01-30T05:42:30;99857.09;;;-2.51;100.00
72423;BME280;71399;54.146;38.734;2024-01-30T05:44:56;99877.06;;;-2.44;100.00
72423;BME280;71399;54.146;38.734;2024-01-30T05:47:23;99874.50;;;-2.44;100.00
72423;BME280;71399;54.146;38.734;2024-01-30T05:49:49;99878.56;;;-2.41;100.00
72423;BME280;71399;54.146;38.734;2024-01-30T05:52:16;99881.97;;;-2.40;100.00
72423;BME280;71399;54.146;38.734;2024-01-30T05:54:42;99894.44;;;-2.36;100.00
72423;BME280;71399;54.146;38.734;2024-01-30T05:57:08;99889.69;;;-2.31;100.00
72423;BME280;71399;54.146;38.734;2024-01-30T05:59:35;99895.97;;;-2.33;100.00
72423;BME280;71399;54.146;38.734;2024-01-30T06:02:02;99882.22;;;-2.24;100.00
72423;BME280;71399;54.146;38.734;2024-01-30T06:04:28;99876.78;;;-2.21;100.00
72423;BME280;71399;54.146;38.734;2024-01-30T06:06:54;99889.28;;;-2.26;100.00
72423;BME280;71399;54.146;38.734;2024-01-30T06:09:21;99895.97;;;-2.24;100.00
72423;BME280;71399;54.146;38.734;2024-01-30T06:11:47;99895.00;;;-2.22;100.00
72423;BME280;71399;54.146;38.734;2024-01-30T06:14:13;99900.56;;;-2.08;100.00
72423;BME280;71399;54.146;38.734;2024-01-30T06:16:40;99911.56;;;-2.06;100.00
72423;BME280;71399;54.146;38.734;2024-01-30T06:19:06;99904.09;;;-1.99;100.00
72423;BME280;71399;54.146;38.734;2024-01-30T06:21:32;99897.69;;;-1.95;100.00
72423;BME280;71399;54.146;38.734;2024-01-30T06:24:02;99911.28;;;-1.83;100.00
72423;BME280;71399;54.146;38.734;2024-01-30T06:26:29;99922.97;;;-1.79;100.00
72423;BME280;71399;54.146;38.734;2024-01-30T06:28:55;99938.91;;;-1.74;100.00
72423;BME280;71399;54.146;38.734;2024-01-30T06:31:21;99954.94;;;-1.70;100.00
72423;BME280;71399;54.146;38.734;2024-01-30T06:33:48;99956.28;;;-1.66;100.00
72423;BME280;71399;54.146;38.734;2024-01-30T06:36:14;99951.38;;;-1.59;100.00
72423;BME280;71399;54.146;38.734;2024-01-30T06:38:41;99971.78;;;-1.56;100.00
72423;BME280;71399;54.146;38.734;2024-01-30T06:41:07;99976.94;;;-1.46;100.00
72423;BME280;71399;54.146;38.734;2024-01-30T06:43:33;99980.44;;;-1.38;100.00
72423;BME280;71399;54.146;38.734;2024-01-30T06:45:59;99999.75;;;-1.32;100.00
72423;BME280;71399;54.146;38.734;2024-01-30T06:48:25;100000.84;;;-1.25;100.00
72423;BME280;71399;54.146;38.734;2024-01-30T06:50:56;100016.75;;;-1.20;100.00
72423;BME280;71399;54.146;38.734;2024-01-30T06:53:23;100038.94;;;-1.17;100.00
72423;BME280;71399;54.146;38.734;2024-01-30T06:55:51;100035.41;;;-1.16;100.00
72423;BME280;71399;54.146;38.734;2024-01-30T06:58:18;100042.75;;;-1.12;100.00
72423;BME280;71399;54.146;38.734;2024-01-30T07:00:44;100036.59;;;-1.10;100.00
72423;BME280;71399;54.146;38.734;2024-01-30T07:03:10;100053.34;;;-1.05;100.00
72423;BME280;71399;54.146;38.734;2024-01-30T07:05:36;100054.31;;;-1.06;100.00
72423;BME280;71399;54.146;38.734;2024-01-30T07:08:03;100052.38;;;-1.04;100.00
72423;BME280;71399;54.146;38.734;2024-01-30T07:10:29;100048.69;;;-0.91;100.00
72423;BME280;71399;54.146;38.734;2024-01-30T07:12:57;100069.22;;;-0.80;100.00
72423;BME280;71399;54.146;38.734;2024-01-30T07:15:24;100096.44;;;-0.76;100.00
72423;BME280;71399;54.146;38.734;2024-01-30T07:17:50;100098.78;;;-0.73;100.00
72423;BME280;71399;54.146;38.734;2024-01-30T07:20:16;100097.09;;;-0.64;100.00
72423;BME280;71399;54.146;38.734;2024-01-30T07:22:45;100107.84;;;-0.59;100.00
72423;BME280;71399;54.146;38.734;2024-01-30T07:25:12;100111.06;;;-0.47;100.00
72423;BME280;71399;54.146;38.734;2024-01-30T07:27:38;100124.56;;;-0.44;100.00
72423;BME280;71399;54.146;38.734;2024-01-30T07:30:05;100128.50;;;-0.40;100.00
72423;BME280;71399;54.146;38.734;2024-01-30T07:32:31;100136.69;;;-0.44;100.00
72423;BME280;71399;54.146;38.734;2024-01-30T07:34:58;100151.97;;;-0.41;100.00
72423;BME280;71399;54.146;38.734;2024-01-30T07:37:24;100148.56;;;-0.42;100.00
72423;BME280;71399;54.146;38.734;2024-01-30T07:39:50;100150.75;;;-0.47;100.00
72423;BME280;71399;54.146;38.734;2024-01-30T07:42:17;100142.88;;;-0.55;100.00
72423;BME280;71399;54.146;38.734;2024-01-30T07:44:43;100122.56;;;-0.60;100.00
72423;BME280;71399;54.146;38.734;2024-01-30T07:47:10;100139.72;;;-0.59;100.00
72423;BME280;71399;54.146;38.734;2024-01-30T07:49:36;100116.41;;;-0.59;100.00
72423;BME280;71399;54.146;38.734;2024-01-30T07:52:04;100116.50;;;-0.41;100.00
72423;BME280;71399;54.146;38.734;2024-01-30T07:54:31;100112.19;;;-0.22;100.00
72423;BME280;71399;54.146;38.734;2024-01-30T07:57:00;100130.69;;;-0.07;100.00
72423;BME280;71399;54.146;38.734;2024-01-30T07:59:27;100144.41;;;0.03;100.00
72423;BME280;71399;54.146;38.734;2024-01-30T08:01:53;100138.50;;;0.11;100.00
72423;BME280;71399;54.146;38.734;2024-01-30T08:04:19;100153.34;;;0.36;100.00
72423;BME280;71399;54.146;38.734;2024-01-30T08:06:45;100171.78;;;0.33;100.00
72423;BME280;71399;54.146;38.734;2024-01-30T08:09:12;100183.47;;;0.20;100.00
72423;BME280;71399;54.146;38.734;2024-01-30T08:11:38;100170.69;;;0.08;100.00
72423;BME280;71399;54.146;38.734;2024-01-30T08:14:04;100163.13;;;-0.03;100.00
72423;BME280;71399;54.146;38.734;2024-01-30T08:16:30;100152.88;;;0.05;100.00
72423;BME280;71399;54.146;38.734;2024-01-30T08:18:56;100150.66;;;0.10;100.00
72423;BME280;71399;54.146;38.734;2024-01-30T08:21:23;100136.84;;;0.10;100.00
72423;BME280;71399;54.146;38.734;2024-01-30T08:23:50;100152.41;;;0.10;100.00
72423;BME280;71399;54.146;38.734;2024-01-30T08:26:16;100147.69;;;0.05;100.00
72423;BME280;71399;54.146;38.734;2024-01-30T08:28:43;100141.56;;;-0.04;100.00
72423;BME280;71399;54.146;38.734;2024-01-30T08:31:10;100128.22;;;-0.09;100.00
72423;BME280;71399;54.146;38.734;2024-01-30T08:33:38;100124.59;;;-0.16;100.00
72423;BME280;71399;54.146;38.734;2024-01-30T08:36:04;100118.63;;;-0.26;100.00
72423;BME280;71399;54.146;38.734;2024-01-30T08:38:30;100122.47;;;-0.30;100.00
72423;BME280;71399;54.146;38.734;2024-01-30T08:40:56;100099.28;;;-0.32;100.00
72423;BME280;71399;54.146;38.734;2024-01-30T08:43:23;100075.59;;;-0.37;100.00
72423;BME280;71399;54.146;38.734;2024-01-30T08:45:49;100075.53;;;-0.27;100.00
72423;BME280;71399;54.146;38.734;2024-01-30T08:48:15;100072.09;;;-0.18;100.00
72423;BME280;71399;54.146;38.734;2024-01-30T08:50:41;100067.44;;;-0.14;100.00
72423;BME280;71399;54.146;38.734;2024-01-30T08:53:08;100063.63;;;0.08;100.00
72423;BME280;71399;54.146;38.734;2024-01-30T08:55:34;100068.25;;;0.32;100.00
72423;BME280;71399;54.146;38.734;2024-01-30T08:58:00;100082.91;;;0.41;100.00
72423;BME280;71399;54.146;38.734;2024-01-30T09:00:27;100096.16;;;0.56;100.00
72423;BME280;71399;54.146;38.734;2024-01-30T09:02:53;100100.25;;;0.59;100.00
72423;BME280;71399;54.146;38.734;2024-01-30T09:05:19;100116.91;;;0.74;100.00
72423;BME280;71399;54.146;38.734;2024-01-30T09:07:46;100116.41;;;0.70;100.00
72423;BME280;71399;54.146;38.734;2024-01-30T09:10:12;100115.34;;;0.81;100.00
72423;BME280;71399;54.146;38.734;2024-01-30T09:12:38;100114.34;;;1.00;100.00
72423;BME280;71399;54.146;38.734;2024-01-30T09:15:05;100127.72;;;1.05;100.00
72423;BME280;71399;54.146;38.734;2024-01-30T09:17:31;100117.66;;;1.37;100.00
72423;BME280;71399;54.146;38.734;2024-01-30T09:19:59;100140.34;;;1.53;100.00
72423;BME280;71399;54.146;38.734;2024-01-30T09:22:25;100143.53;;;1.46;100.00
72423;BME280;71399;54.146;38.734;2024-01-30T09:24:52;100151.59;;;1.35;100.00
72423;BME280;71399;54.146;38.734;2024-01-30T09:27:18;100135.00;;;1.28;100.00
72423;BME280;71399;54.146;38.734;2024-01-30T09:29:44;100136.47;;;1.31;100.00
72423;BME280;71399;54.146;38.734;2024-01-30T09:32:11;100120.41;;;1.35;100.00
72423;BME280;71399;54.146;38.734;2024-01-30T09:34:37;100132.03;;;1.49;100.00
72423;BME280;71399;54.146;38.734;2024-01-30T09:37:05;100126.25;;;1.63;100.00
72423;BME280;71399;54.146;38.734;2024-01-30T09:39:31;100127.44;;;1.69;100.00
72423;BME280;71399;54.146;38.734;2024-01-30T09:45:18;100134.09;;;1.72;100.00
72423;BME280;71399;54.146;38.734;2024-01-30T09:47:45;100143.38;;;1.74;100.00
72423;BME280;71399;54.146;38.734;2024-01-30T09:50:14;100135.59;;;1.48;100.00
72423;BME280;71399;54.146;38.734;2024-01-30T09:52:45;100143.28;;;1.32;100.00
72423;BME280;71399;54.146;38.734;2024-01-30T09:55:12;100142.47;;;1.31;100.00
72423;BME280;71399;54.146;38.734;2024-01-30T09:57:38;100144.88;;;1.24;100.00
72423;BME280;71399;54.146;38.734;2024-01-30T10:00:06;100136.16;;;1.34;100.00
72423;BME280;71399;54.146;38.734;2024-01-30T10:02:41;100154.38;;;1.42;100.00
72423;BME280;71399;54.146;38.734;2024-01-30T10:05:08;100158.56;;;1.35;100.00
72423;BME280;71399;54.146;38.734;2024-01-30T10:07:35;100148.56;;;1.22;100.00
72423;BME280;71399;54.146;38.734;2024-01-30T10:10:01;100141.63;;;1.22;100.00
72423;BME280;71399;54.146;38.734;2024-01-30T10:12:30;100135.44;;;1.23;100.00
72423;BME280;71399;54.146;38.734;2024-01-30T10:14:56;100134.28;;;1.18;100.00
72423;BME280;71399;54.146;38.734;2024-01-30T10:17:25;100123.16;;;1.34;100.00
72423;BME280;71399;54.146;38.734;2024-01-30T10:19:52;100140.63;;;1.50;100.00
72423;BME280;71399;54.146;38.734;2024-01-30T10:22:19;100134.16;;;1.54;100.00
72423;BME280;71399;54.146;38.734;2024-01-30T10:24:45;100144.41;;;1.55;100.00
72423;BME280;71399;54.146;38.734;2024-01-30T10:27:12;100138.75;;;1.34;100.00
72423;BME280;71399;54.146;38.734;2024-01-30T10:29:38;100143.34;;;1.40;100.00
72423;BME280;71399;54.146;38.734;2024-01-30T10:32:05;100143.63;;;1.37;100.00
72423;BME280;71399;54.146;38.734;2024-01-30T10:34:32;100134.09;;;1.37;100.00
72423;BME280;71399;54.146;38.734;2024-01-30T10:37:07;100144.97;;;1.41;100.00
72423;BME280;71399;54.146;38.734;2024-01-30T10:39:45;100142.78;;;1.28;100.00
72423;BME280;71399;54.146;38.734;2024-01-30T10:42:18;100138.88;;;1.24;100.00
72423;BME280;71399;54.146;38.734;2024-01-30T10:45:06;100150.25;;;1.31;100.00
72423;BME280;71399;54.146;38.734;2024-01-30T10:47:36;100146.09;;;1.38;100.00
72423;BME280;71399;54.146;38.734;2024-01-30T10:50:03;100140.75;;;1.40;100.00
72423;BME280;71399;54.146;38.734;2024-01-30T10:52:31;100148.03;;;1.36;100.00
72423;BME280;71399;54.146;38.734;2024-01-30T10:54:58;100142.63;;;1.29;100.00
72423;BME280;71399;54.146;38.734;2024-01-30T10:57:26;100149.47;;;1.31;100.00
72423;BME280;71399;54.146;38.734;2024-01-30T10:59:56;100151.00;;;1.23;100.00
72423;BME280;71399;54.146;38.734;2024-01-30T11:02:23;100142.16;;;1.08;100.00
72423;BME280;71399;54.146;38.734;2024-01-30T11:04:55;100149.28;;;1.06;100.00
72423;BME280;71399;54.146;38.734;2024-01-30T11:07:28;100149.22;;;0.98;100.00
72423;BME280;71399;54.146;38.734;2024-01-30T11:10:01;100148.50;;;0.87;100.00
72423;BME280;71399;54.146;38.734;2024-01-30T11:12:37;100139.06;;;0.86;100.00
72423;BME280;71399;54.146;38.734;2024-01-30T11:15:14;100133.00;;;0.78;100.00
72423;BME280;71399;54.146;38.734;2024-01-30T11:20:30;100129.81;;;0.84;100.00
72423;BME280;71399;54.146;38.734;2024-01-30T11:23:02;100131.13;;;0.88;100.00
72423;BME280;71399;54.146;38.734;2024-01-30T11:25:32;100130.97;;;0.89;100.00
72423;BME280;71399;54.146;38.734;2024-01-30T11:28:00;100117.72;;;0.92;100.00
72423;BME280;71399;54.146;38.734;2024-01-30T11:30:32;100120.31;;;0.92;100.00
72423;BME280;71399;54.146;38.734;2024-01-30T11:35:32;100122.91;;;0.92;100.00
72423;BME280;71399;54.146;38.734;2024-01-30T11:38:00;100144.91;;;1.06;100.00
72423;BME280;71399;54.146;38.734;2024-01-30T11:40:28;100143.50;;;1.12;100.00
72423;BME280;71399;54.146;38.734;2024-01-30T11:42:56;100154.19;;;1.09;100.00
72423;BME280;71399;54.146;38.734;2024-01-30T11:45:24;100151.72;;;1.07;100.00
72423;BME280;71399;54.146;38.734;2024-01-30T11:47:50;100148.28;;;1.07;100.00
72423;BME280;71399;54.146;38.734;2024-01-30T11:50:17;100139.69;;;1.06;100.00
72423;BME280;71399;54.146;38.734;2024-01-30T11:52:43;100128.50;;;1.06;100.00
72423;BME280;71399;54.146;38.734;2024-01-30T11:55:10;100129.41;;;0.97;100.00
72423;BME280;71399;54.146;38.734;2024-01-30T11:57:36;100136.25;;;0.98;100.00
72423;BME280;71399;54.146;38.734;2024-01-30T12:00:13;100130.25;;;0.97;100.00
72423;BME280;71399;54.146;38.734;2024-01-30T12:02:40;100121.97;;;1.02;100.00
72423;BME280;71399;54.146;38.734;2024-01-30T12:05:06;100123.47;;;1.04;100.00
72423;BME280;71399;54.146;38.734;2024-01-30T12:07:33;100129.38;;;1.15;100.00
72423;BME280;71399;54.146;38.734;2024-01-30T12:10:00;100127.28;;;1.18;100.00
72423;BME280;71399;54.146;38.734;2024-01-30T12:12:27;100127.34;;;1.26;100.00
72423;BME280;71399;54.146;38.734;2024-01-30T12:14:55;100141.63;;;1.22;100.00
72423;BME280;71399;54.146;38.734;2024-01-30T12:17:32;100123.22;;;1.16;100.00
72423;BME280;71399;54.146;38.734;2024-01-30T12:20:25;100129.09;;;1.18;100.00
72423;BME280;71399;54.146;38.734;2024-01-30T12:22:51;100121.75;;;1.13;100.00
72423;BME280;71399;54.146;38.734;2024-01-30T12:25:20;100119.84;;;0.97;100.00
72423;BME280;71399;54.146;38.734;2024-01-30T12:27:50;100127.50;;;0.99;100.00
72423;BME280;71399;54.146;38.734;2024-01-30T12:30:18;100134.88;;;0.93;100.00
72423;BME280;71399;54.146;38.734;2024-01-30T12:32:47;100122.91;;;0.92;100.00
72423;BME280;71399;54.146;38.734;2024-01-30T12:35:15;100127.78;;;0.96;100.00
72423;BME280;71399;54.146;38.734;2024-01-30T12:37:46;100103.38;;;0.88;100.00
72423;BME280;71399;54.146;38.734;2024-01-30T12:40:14;100111.16;;;0.88;100.00
72423;BME280;71399;54.146;38.734;2024-01-30T12:42:41;100100.06;;;0.78;100.00
72423;BME280;71399;54.146;38.734;2024-01-30T12:45:09;100105.03;;;0.71;100.00